sensor_id;sensor_type;location;lat;lon;timestamp;pressure;altitude;pressure_sealevel;temperature
10598;BMP180;5346;48.766;8.674;2024-01-11T00:00:33;94627.00;;;-6.50
10598;BMP180;5346;48.766;8.674;2024-01-11T00:03:08;94617.00;;;-6.40
10598;BMP180;5346;48.766;8.674;2024-01-11T00:05:45;94626.00;;;-6.20
10598;BMP180;5346;48.766;8.674;2024-01-11T00:08:19;94623.00;;;-6.40
10598;BMP180;5346;48.766;8.674;2024-01-11T00:10:55;94615.00;;;-6.40
10598;BMP180;5346;48.766;8.674;2024-01-11T00:13:23;94624.00;;;-6.40
10598;BMP180;5346;48.766;8.674;2024-01-11T00:15:58;94616.00;;;-6.40
10598;BMP180;5346;48.766;8.674;2024-01-11T00:18:32;94620.00;;;-6.50
10598;BMP180;5346;48.766;8.674;2024-01-11T00:21:06;94621.00;;;-6.60
10598;BMP180;5346;48.766;8.674;2024-01-11T00:23:40;94627.00;;;-6.50
10598;BMP180;5346;48.766;8.674;2024-01-11T00:26:20;94624.00;;;-6.50
10598;BMP180;5346;48.766;8.674;2024-01-11T00:28:55;94625.00;;;-6.50
10598;BMP180;5346;48.766;8.674;2024-01-11T00:31:29;94613.00;;;-6.40
10598;BMP180;5346;48.766;8.674;2024-01-11T00:34:03;94630.00;;;-6.20
10598;BMP180;5346;48.766;8.674;2024-01-11T00:36:37;94621.00;;;-6.10
10598;BMP180;5346;48.766;8.674;2024-01-11T00:39:05;94617.00;;;-6.30
10598;BMP180;5346;48.766;8.674;2024-01-11T00:41:40;94617.00;;;-6.40
10598;BMP180;5346;48.766;8.674;2024-01-11T00:44:15;94616.00;;;-6.50
10598;BMP180;5346;48.766;8.674;2024-01-11T00:46:43;94624.00;;;-6.20
10598;BMP180;5346;48.766;8.674;2024-01-11T00:49:17;94620.00;;;-6.20
10598;BMP180;5346;48.766;8.674;2024-01-11T00:51:51;94625.00;;;-6.00
10598;BMP180;5346;48.766;8.674;2024-01-11T00:54:25;94622.00;;;-6.20
10598;BMP180;5346;48.766;8.674;2024-01-11T00:56:59;94629.00;;;-6.20
10598;BMP180;5346;48.766;8.674;2024-01-11T00:59:34;94635.00;;;-6.30
10598;BMP180;5346;48.766;8.674;2024-01-11T01:02:02;94629.00;;;-6.20
10598;BMP180;5346;48.766;8.674;2024-01-11T01:04:39;94624.00;;;-6.20
10598;BMP180;5346;48.766;8.674;2024-01-11T01:07:07;94634.00;;;-6.20
10598;BMP180;5346;48.766;8.674;2024-01-11T01:09:41;94633.00;;;-6.20
10598;BMP180;5346;48.766;8.674;2024-01-11T01:12:09;94626.00;;;-6.20
10598;BMP180;5346;48.766;8.674;2024-01-11T01:14:43;94630.00;;;-6.00
10598;BMP180;5346;48.766;8.674;2024-01-11T01:17:17;94625.00;;;-6.10
10598;BMP180;5346;48.766;8.674;2024-01-11T01:19:45;94627.00;;;-6.00
10598;BMP180;5346;48.766;8.674;2024-01-11T01:22:19;94623.00;;;-6.10
10598;BMP180;5346;48.766;8.674;2024-01-11T01:24:46;94638.00;;;-6.20
10598;BMP180;5346;48.766;8.674;2024-01-11T01:27:28;94636.00;;;-6.20
10598;BMP180;5346;48.766;8.674;2024-01-11T01:29:56;94636.00;;;-6.10
10598;BMP180;5346;48.766;8.674;2024-01-11T01:32:23;94640.00;;;-6.10
10598;BMP180;5346;48.766;8.674;2024-01-11T01:34:58;94637.00;;;-6.00
10598;BMP180;5346;48.766;8.674;2024-01-11T01:37:33;94640.00;;;-6.00
10598;BMP180;5346;48.766;8.674;2024-01-11T01:40:07;94641.00;;;-6.10
10598;BMP180;5346;48.766;8.674;2024-01-11T01:42:36;94634.00;;;-6.20
10598;BMP180;5346;48.766;8.674;2024-01-11T01:45:15;94637.00;;;-6.30
10598;BMP180;5346;48.766;8.674;2024-01-11T01:47:44;94649.00;;;-6.20
10598;BMP180;5346;48.766;8.674;2024-01-11T01:50:12;94640.00;;;-6.10
10598;BMP180;5346;48.766;8.674;2024-01-11T01:52:48;94640.00;;;-6.10
10598;BMP180;5346;48.766;8.674;2024-01-11T01:55:17;94640.00;;;-6.00
10598;BMP180;5346;48.766;8.674;2024-01-11T01:57:45;94656.00;;;-5.90
10598;BMP180;5346;48.766;8.674;2024-01-11T02:00:21;94654.00;;;-5.80
10598;BMP180;5346;48.766;8.674;2024-01-11T02:02:51;94653.00;;;-5.80
10598;BMP180;5346;48.766;8.674;2024-01-11T02:05:26;94654.00;;;-5.90
10598;BMP180;5346;48.766;8.674;2024-01-11T02:07:55;94662.00;;;-5.90
10598;BMP180;5346;48.766;8.674;2024-01-11T02:10:25;94654.00;;;-6.00
10598;BMP180;5346;48.766;8.674;2024-01-11T02:12:59;94653.00;;;-6.00
10598;BMP180;5346;48.766;8.674;2024-01-11T02:15:27;94649.00;;;-6.20
10598;BMP180;5346;48.766;8.674;2024-01-11T02:17:55;94656.00;;;-6.20
10598;BMP180;5346;48.766;8.674;2024-01-11T02:20:29;94657.00;;;-6.20
10598;BMP180;5346;48.766;8.674;2024-01-11T02:23:01;94665.00;;;-5.90
10598;BMP180;5346;48.766;8.674;2024-01-11T02:25:43;94651.00;;;-6.00
10598;BMP180;5346;48.766;8.674;2024-01-11T02:28:11;94657.00;;;-6.00
10598;BMP180;5346;48.766;8.674;2024-01-11T02:30:45;94658.00;;;-6.10
10598;BMP180;5346;48.766;8.674;2024-01-11T02:33:13;94646.00;;;-6.30
10598;BMP180;5346;48.766;8.674;2024-01-11T02:35:49;94652.00;;;-6.20
10598;BMP180;5346;48.766;8.674;2024-01-11T02:38:18;94649.00;;;-6.20
10598;BMP180;5346;48.766;8.674;2024-01-11T02:40:52;94655.00;;;-6.30
10598;BMP180;5346;48.766;8.674;2024-01-11T02:43:27;94653.00;;;-6.30
10598;BMP180;5346;48.766;8.674;2024-01-11T02:46:01;94654.00;;;-6.20
10598;BMP180;5346;48.766;8.674;2024-01-11T02:48:30;94651.00;;;-6.20
10598;BMP180;5346;48.766;8.674;2024-01-11T02:51:04;94648.00;;;-6.20
10598;BMP180;5346;48.766;8.674;2024-01-11T02:53:38;94641.00;;;-6.30
10598;BMP180;5346;48.766;8.674;2024-01-11T02:56:13;94641.00;;;-6.20
10598;BMP180;5346;48.766;8.674;2024-01-11T02:58:41;94647.00;;;-6.20
10598;BMP180;5346;48.766;8.674;2024-01-11T03:01:15;94639.00;;;-6.20
10598;BMP180;5346;48.766;8.674;2024-01-11T03:03:43;94644.00;;;-6.20
10598;BMP180;5346;48.766;8.674;2024-01-11T03:06:11;94633.00;;;-6.30
10598;BMP180;5346;48.766;8.674;2024-01-11T03:08:46;94642.00;;;-6.30
10598;BMP180;5346;48.766;8.674;2024-01-11T03:11:14;94625.00;;;-6.30
10598;BMP180;5346;48.766;8.674;2024-01-11T03:13:41;94625.00;;;-6.40
10598;BMP180;5346;48.766;8.674;2024-01-11T03:16:16;94629.00;;;-6.50
10598;BMP180;5346;48.766;8.674;2024-01-11T03:18:50;94623.00;;;-6.60
10598;BMP180;5346;48.766;8.674;2024-01-11T03:21:25;94626.00;;;-6.50
10598;BMP180;5346;48.766;8.674;2024-01-11T03:23:59;94623.00;;;-6.60
10598;BMP180;5346;48.766;8.674;2024-01-11T03:26:33;94625.00;;;-6.50
10598;BMP180;5346;48.766;8.674;2024-01-11T03:29:14;94623.00;;;-6.50
10598;BMP180;5346;48.766;8.674;2024-01-11T03:31:42;94618.00;;;-6.70
10598;BMP180;5346;48.766;8.674;2024-01-11T03:34:18;94621.00;;;-6.70
10598;BMP180;5346;48.766;8.674;2024-01-11T03:36:46;94612.00;;;-6.70
10598;BMP180;5346;48.766;8.674;2024-01-11T03:39:20;94615.00;;;-6.70
10598;BMP180;5346;48.766;8.674;2024-01-11T03:41:47;94617.00;;;-6.70
10598;BMP180;5346;48.766;8.674;2024-01-11T03:44:23;94628.00;;;-6.60
10598;BMP180;5346;48.766;8.674;2024-01-11T03:46:57;94619.00;;;-6.80
10598;BMP180;5346;48.766;8.674;2024-01-11T03:49:25;94623.00;;;-6.80
10598;BMP180;5346;48.766;8.674;2024-01-11T03:51:59;94619.00;;;-7.00
10598;BMP180;5346;48.766;8.674;2024-01-11T03:54:33;94621.00;;;-7.00
10598;BMP180;5346;48.766;8.674;2024-01-11T03:57:01;94619.00;;;-7.10
10598;BMP180;5346;48.766;8.674;2024-01-11T03:59:35;94622.00;;;-7.30
10598;BMP180;5346;48.766;8.674;2024-01-11T04:02:09;94611.00;;;-7.20
10598;BMP180;5346;48.766;8.674;2024-01-11T04:04:43;94606.00;;;-7.10
10598;BMP180;5346;48.766;8.674;2024-01-11T04:07:11;94610.00;;;-7.20
10598;BMP180;5346;48.766;8.674;2024-01-11T04:09:46;94619.00;;;-7.30
10598;BMP180;5346;48.766;8.674;2024-01-11T04:12:14;94610.00;;;-7.40
10598;BMP180;5346;48.766;8.674;2024-01-11T04:14:42;94610.00;;;-7.50
10598;BMP180;5346;48.766;8.674;2024-01-11T04:17:23;94618.00;;;-7.50
10598;BMP180;5346;48.766;8.674;2024-01-11T04:19:57;94612.00;;;-7.60
10598;BMP180;5346;48.766;8.674;2024-01-11T04:22:31;94614.00;;;-7.50
10598;BMP180;5346;48.766;8.674;2024-01-11T04:25:06;94607.00;;;-7.50
10598;BMP180;5346;48.766;8.674;2024-01-11T04:27:40;94612.00;;;-7.70
10598;BMP180;5346;48.766;8.674;2024-01-11T04:30:08;94622.00;;;-7.80
10598;BMP180;5346;48.766;8.674;2024-01-11T04:32:36;94623.00;;;-7.30
10598;BMP180;5346;48.766;8.674;2024-01-11T04:35:10;94628.00;;;-7.20
10598;BMP180;5346;48.766;8.674;2024-01-11T04:37:45;94624.00;;;-7.40
10598;BMP180;5346;48.766;8.674;2024-01-11T04:40:19;94627.00;;;-7.70
10598;BMP180;5346;48.766;8.674;2024-01-11T04:42:47;94616.00;;;-7.70
10598;BMP180;5346;48.766;8.674;2024-01-11T04:45:14;94624.00;;;-7.80
10598;BMP180;5346;48.766;8.674;2024-01-11T04:47:50;94608.00;;;-7.70
10598;BMP180;5346;48.766;8.674;2024-01-11T04:50:26;94610.00;;;-7.60
10598;BMP180;5346;48.766;8.674;2024-01-11T04:52:53;94613.00;;;-7.80
10598;BMP180;5346;48.766;8.674;2024-01-11T04:55:28;94611.00;;;-7.90
10598;BMP180;5346;48.766;8.674;2024-01-11T04:57:56;94619.00;;;-7.70
10598;BMP180;5346;48.766;8.674;2024-01-11T05:00:30;94616.00;;;-7.80
10598;BMP180;5346;48.766;8.674;2024-01-11T05:02:58;94622.00;;;-7.80
10598;BMP180;5346;48.766;8.674;2024-01-11T05:05:25;94621.00;;;-7.70
10598;BMP180;5346;48.766;8.674;2024-01-11T05:08:00;94626.00;;;-7.50
10598;BMP180;5346;48.766;8.674;2024-01-11T05:10:28;94618.00;;;-7.50
10598;BMP180;5346;48.766;8.674;2024-01-11T05:13:02;94625.00;;;-7.30
10598;BMP180;5346;48.766;8.674;2024-01-11T05:15:36;94624.00;;;-7.40
10598;BMP180;5346;48.766;8.674;2024-01-11T05:18:10;94629.00;;;-7.20
10598;BMP180;5346;48.766;8.674;2024-01-11T05:20:45;94632.00;;;-7.10
10598;BMP180;5346;48.766;8.674;2024-01-11T05:23:12;94644.00;;;-7.00
10598;BMP180;5346;48.766;8.674;2024-01-11T05:25:40;94636.00;;;-7.10
10598;BMP180;5346;48.766;8.674;2024-01-11T05:28:15;94643.00;;;-7.20
10598;BMP180;5346;48.766;8.674;2024-01-11T05:30:42;94647.00;;;-7.30
10598;BMP180;5346;48.766;8.674;2024-01-11T05:33:17;94645.00;;;-7.20
10598;BMP180;5346;48.766;8.674;2024-01-11T05:35:51;94650.00;;;-7.30
10598;BMP180;5346;48.766;8.674;2024-01-11T05:38:27;94655.00;;;-7.40
10598;BMP180;5346;48.766;8.674;2024-01-11T05:40:55;94664.00;;;-7.40
10598;BMP180;5346;48.766;8.674;2024-01-11T05:43:31;94658.00;;;-7.40
10598;BMP180;5346;48.766;8.674;2024-01-11T05:45:58;94653.00;;;-7.50
10598;BMP180;5346;48.766;8.674;2024-01-11T05:48:27;94651.00;;;-7.60
10598;BMP180;5346;48.766;8.674;2024-01-11T05:51:02;94658.00;;;-7.50
10598;BMP180;5346;48.766;8.674;2024-01-11T05:53:29;94659.00;;;-7.40
10598;BMP180;5346;48.766;8.674;2024-01-11T05:56:10;94651.00;;;-7.50
10598;BMP180;5346;48.766;8.674;2024-01-11T05:58:46;94643.00;;;-7.40
10598;BMP180;5346;48.766;8.674;2024-01-11T06:01:19;94654.00;;;-7.40
10598;BMP180;5346;48.766;8.674;2024-01-11T06:03:54;94660.00;;;-7.10
10598;BMP180;5346;48.766;8.674;2024-01-11T06:06:22;94669.00;;;-6.90
10598;BMP180;5346;48.766;8.674;2024-01-11T06:08:50;94667.00;;;-6.90
10598;BMP180;5346;48.766;8.674;2024-01-11T06:11:24;94670.00;;;-6.80
10598;BMP180;5346;48.766;8.674;2024-01-11T06:14:00;94671.00;;;-6.80
10598;BMP180;5346;48.766;8.674;2024-01-11T06:16:29;94655.00;;;-6.70
10598;BMP180;5346;48.766;8.674;2024-01-11T06:19:03;94662.00;;;-6.60
10598;BMP180;5346;48.766;8.674;2024-01-11T06:21:31;94667.00;;;-6.60
10598;BMP180;5346;48.766;8.674;2024-01-11T06:24:06;94658.00;;;-6.60
10598;BMP180;5346;48.766;8.674;2024-01-11T06:26:46;94655.00;;;-6.60
10598;BMP180;5346;48.766;8.674;2024-01-11T06:29:14;94655.00;;;-6.50
10598;BMP180;5346;48.766;8.674;2024-01-11T06:31:48;94661.00;;;-6.40
10598;BMP180;5346;48.766;8.674;2024-01-11T06:34:22;94663.00;;;-6.20
10598;BMP180;5346;48.766;8.674;2024-01-11T06:36:57;94673.00;;;-6.00
10598;BMP180;5346;48.766;8.674;2024-01-11T06:39:24;94669.00;;;-5.80
10598;BMP180;5346;48.766;8.674;2024-01-11T06:41:59;94678.00;;;-5.90
10598;BMP180;5346;48.766;8.674;2024-01-11T06:44:34;94674.00;;;-6.10
10598;BMP180;5346;48.766;8.674;2024-01-11T06:47:08;94675.00;;;-6.20
10598;BMP180;5346;48.766;8.674;2024-01-11T06:49:38;94680.00;;;-6.40
10598;BMP180;5346;48.766;8.674;2024-01-11T06:52:14;94678.00;;;-6.50
10598;BMP180;5346;48.766;8.674;2024-01-11T06:54:42;94678.00;;;-6.60
10598;BMP180;5346;48.766;8.674;2024-01-11T06:57:16;94682.00;;;-6.60
10598;BMP180;5346;48.766;8.674;2024-01-11T06:59:51;94689.00;;;-6.50
10598;BMP180;5346;48.766;8.674;2024-01-11T07:02:26;94702.00;;;-6.40
10598;BMP180;5346;48.766;8.674;2024-01-11T07:05:00;94695.00;;;-6.50
10598;BMP180;5346;48.766;8.674;2024-01-11T07:07:35;94701.00;;;-6.80
10598;BMP180;5346;48.766;8.674;2024-01-11T07:10:04;94703.00;;;-6.90
10598;BMP180;5346;48.766;8.674;2024-01-11T07:12:39;94703.00;;;-6.80
10598;BMP180;5346;48.766;8.674;2024-01-11T07:15:16;94717.00;;;-6.60
10598;BMP180;5346;48.766;8.674;2024-01-11T07:17:51;94716.00;;;-6.70
10598;BMP180;5346;48.766;8.674;2024-01-11T07:20:18;94708.00;;;-6.60
10598;BMP180;5346;48.766;8.674;2024-01-11T07:22:53;94717.00;;;-6.60
10598;BMP180;5346;48.766;8.674;2024-01-11T07:25:20;94710.00;;;-6.70
10598;BMP180;5346;48.766;8.674;2024-01-11T07:27:54;94723.00;;;-6.70
10598;BMP180;5346;48.766;8.674;2024-01-11T07:30:22;94712.00;;;-6.70
10598;BMP180;5346;48.766;8.674;2024-01-11T07:32:56;94712.00;;;-6.70
10598;BMP180;5346;48.766;8.674;2024-01-11T07:35:31;94706.00;;;-6.70
10598;BMP180;5346;48.766;8.674;2024-01-11T07:38:06;94701.00;;;-6.50
10598;BMP180;5346;48.766;8.674;2024-01-11T07:40:39;94712.00;;;-6.30
10598;BMP180;5346;48.766;8.674;2024-01-11T07:43:11;94713.00;;;-6.20
10598;BMP180;5346;48.766;8.674;2024-01-11T07:45:45;94716.00;;;-6.10
10598;BMP180;5346;48.766;8.674;2024-01-11T07:48:20;94711.00;;;-6.00
10598;BMP180;5346;48.766;8.674;2024-01-11T07:50:57;94715.00;;;-5.90
10598;BMP180;5346;48.766;8.674;2024-01-11T07:53:25;94713.00;;;-5.80
10598;BMP180;5346;48.766;8.674;2024-01-11T07:55:59;94715.00;;;-5.40
10598;BMP180;5346;48.766;8.674;2024-01-11T07:58:29;94714.00;;;-5.20
10598;BMP180;5346;48.766;8.674;2024-01-11T08:00:58;94717.00;;;-5.00
10598;BMP180;5346;48.766;8.674;2024-01-11T08:03:33;94727.00;;;-4.60
10598;BMP180;5346;48.766;8.674;2024-01-11T08:06:10;94732.00;;;-4.40
10598;BMP180;5346;48.766;8.674;2024-01-11T08:08:44;94725.00;;;-4.00
10598;BMP180;5346;48.766;8.674;2024-01-11T08:11:18;94739.00;;;-3.20
10598;BMP180;5346;48.766;8.674;2024-01-11T08:13:46;94734.00;;;-2.20
10598;BMP180;5346;48.766;8.674;2024-01-11T08:16:21;94741.00;;;-1.40
10598;BMP180;5346;48.766;8.674;2024-01-11T08:18:55;94754.00;;;-0.60
10598;BMP180;5346;48.766;8.674;2024-01-11T08:21:29;94746.00;;;-0.40
10598;BMP180;5346;48.766;8.674;2024-01-11T08:24:04;94746.00;;;-0.70
10598;BMP180;5346;48.766;8.674;2024-01-11T08:26:38;94749.00;;;-0.40
10598;BMP180;5346;48.766;8.674;2024-01-11T08:29:14;94759.00;;;-0.50
10598;BMP180;5346;48.766;8.674;2024-01-11T08:31:48;94758.00;;;-0.20
10598;BMP180;5346;48.766;8.674;2024-01-11T08:34:22;94753.00;;;0.60
10598;BMP180;5346;48.766;8.674;2024-01-11T08:36:57;94759.00;;;0.60
10598;BMP180;5346;48.766;8.674;2024-01-11T08:39:25;94766.00;;;-0.40
10598;BMP180;5346;48.766;8.674;2024-01-11T08:41:59;94760.00;;;-0.70
10598;BMP180;5346;48.766;8.674;2024-01-11T08:44:27;94757.00;;;-0.80
10598;BMP180;5346;48.766;8.674;2024-01-11T08:47:02;94761.00;;;-0.60
10598;BMP180;5346;48.766;8.674;2024-01-11T08:49:31;94761.00;;;-1.10
10598;BMP180;5346;48.766;8.674;2024-01-11T08:52:07;94768.00;;;-1.60
10598;BMP180;5346;48.766;8.674;2024-01-11T08:54:41;94769.00;;;-0.90
10598;BMP180;5346;48.766;8.674;2024-01-11T08:57:08;94768.00;;;-1.00
10598;BMP180;5346;48.766;8.674;2024-01-11T08:59:43;94758.00;;;-1.20
10598;BMP180;5346;48.766;8.674;2024-01-11T09:02:17;94776.00;;;-0.50
10598;BMP180;5346;48.766;8.674;2024-01-11T09:04:48;94772.00;;;-0.80
10598;BMP180;5346;48.766;8.674;2024-01-11T09:07:18;94774.00;;;0.70
10598;BMP180;5346;48.766;8.674;2024-01-11T09:09:51;94767.00;;;-0.30
10598;BMP180;5346;48.766;8.674;2024-01-11T09:12:24;94771.00;;;0.50
10598;BMP180;5346;48.766;8.674;2024-01-11T09:14:59;94772.00;;;0.30
10598;BMP180;5346;48.766;8.674;2024-01-11T09:17:27;94767.00;;;1.00
10598;BMP180;5346;48.766;8.674;2024-01-11T09:20:03;94762.00;;;1.60
10598;BMP180;5346;48.766;8.674;2024-01-11T09:22:37;94761.00;;;2.60
10598;BMP180;5346;48.766;8.674;2024-01-11T09:25:18;94769.00;;;3.10
10598;BMP180;5346;48.766;8.674;2024-01-11T09:28:00;94779.00;;;2.30
10598;BMP180;5346;48.766;8.674;2024-01-11T09:30:34;94783.00;;;1.70
10598;BMP180;5346;48.766;8.674;2024-01-11T09:33:02;94780.00;;;2.10
10598;BMP180;5346;48.766;8.674;2024-01-11T09:35:37;94777.00;;;2.80
10598;BMP180;5346;48.766;8.674;2024-01-11T09:38:05;94777.00;;;2.90
10598;BMP180;5346;48.766;8.674;2024-01-11T09:40:39;94778.00;;;2.80
10598;BMP180;5346;48.766;8.674;2024-01-11T09:43:07;94782.00;;;2.60
10598;BMP180;5346;48.766;8.674;2024-01-11T09:45:40;94780.00;;;3.70
10598;BMP180;5346;48.766;8.674;2024-01-11T09:48:14;94785.00;;;3.50
10598;BMP180;5346;48.766;8.674;2024-01-11T09:50:50;94774.00;;;3.20
10598;BMP180;5346;48.766;8.674;2024-01-11T09:53:28;94768.00;;;2.80
10598;BMP180;5346;48.766;8.674;2024-01-11T09:56:02;94781.00;;;3.10
10598;BMP180;5346;48.766;8.674;2024-01-11T09:58:40;94791.00;;;3.50
10598;BMP180;5346;48.766;8.674;2024-01-11T10:01:10;94792.00;;;3.10
10598;BMP180;5346;48.766;8.674;2024-01-11T10:03:45;94789.00;;;2.00
10598;BMP180;5346;48.766;8.674;2024-01-11T10:06:15;94789.00;;;2.40
10598;BMP180;5346;48.766;8.674;2024-01-11T10:08:53;94783.00;;;1.90
10598;BMP180;5346;48.766;8.674;2024-01-11T10:11:20;94790.00;;;2.20
10598;BMP180;5346;48.766;8.674;2024-01-11T10:13:58;94794.00;;;1.80
10598;BMP180;5346;48.766;8.674;2024-01-11T10:16:31;94785.00;;;2.20
10598;BMP180;5346;48.766;8.674;2024-01-11T10:19:05;94787.00;;;2.50
10598;BMP180;5346;48.766;8.674;2024-01-11T10:21:33;94793.00;;;2.80
10598;BMP180;5346;48.766;8.674;2024-01-11T10:24:21;94785.00;;;3.60
10598;BMP180;5346;48.766;8.674;2024-01-11T10:27:09;94787.00;;;4.00
10598;BMP180;5346;48.766;8.674;2024-01-11T10:29:43;94787.00;;;2.40
10598;BMP180;5346;48.766;8.674;2024-01-11T10:32:18;94794.00;;;2.40
10598;BMP180;5346;48.766;8.674;2024-01-11T10:34:52;94783.00;;;2.70
10598;BMP180;5346;48.766;8.674;2024-01-11T10:37:27;94784.00;;;3.30
10598;BMP180;5346;48.766;8.674;2024-01-11T10:39:57;94775.00;;;3.50
10598;BMP180;5346;48.766;8.674;2024-01-11T10:42:44;94767.00;;;2.90
10598;BMP180;5346;48.766;8.674;2024-01-11T10:45:20;94781.00;;;4.00
10598;BMP180;5346;48.766;8.674;2024-01-11T10:48:12;94772.00;;;4.10
10598;BMP180;5346;48.766;8.674;2024-01-11T10:50:56;94773.00;;;4.30
10598;BMP180;5346;48.766;8.674;2024-01-11T10:53:43;94766.00;;;4.70
10598;BMP180;5346;48.766;8.674;2024-01-11T10:56:22;94779.00;;;3.70
10598;BMP180;5346;48.766;8.674;2024-01-11T10:58:57;94782.00;;;4.90
10598;BMP180;5346;48.766;8.674;2024-01-11T11:01:32;94784.00;;;3.90
10598;BMP180;5346;48.766;8.674;2024-01-11T11:04:08;94790.00;;;3.50
10598;BMP180;5346;48.766;8.674;2024-01-11T11:06:43;94798.00;;;4.10
10598;BMP180;5346;48.766;8.674;2024-01-11T11:09:18;94787.00;;;4.40
10598;BMP180;5346;48.766;8.674;2024-01-11T11:11:59;94795.00;;;3.10
10598;BMP180;5346;48.766;8.674;2024-01-11T11:14:28;94792.00;;;4.10
10598;BMP180;5346;48.766;8.674;2024-01-11T11:17:03;94792.00;;;4.50
10598;BMP180;5346;48.766;8.674;2024-01-11T11:19:32;94800.00;;;4.60
10598;BMP180;5346;48.766;8.674;2024-01-11T11:22:06;94796.00;;;5.90
10598;BMP180;5346;48.766;8.674;2024-01-11T11:24:40;94797.00;;;5.00
10598;BMP180;5346;48.766;8.674;2024-01-11T11:27:15;94792.00;;;6.70
10598;BMP180;5346;48.766;8.674;2024-01-11T11:29:50;94798.00;;;4.70
10598;BMP180;5346;48.766;8.674;2024-01-11T11:32:44;94801.00;;;4.80
10598;BMP180;5346;48.766;8.674;2024-01-11T11:35:19;94793.00;;;5.30
10598;BMP180;5346;48.766;8.674;2024-01-11T11:37:57;94792.00;;;6.10
10598;BMP180;5346;48.766;8.674;2024-01-11T11:40:38;94792.00;;;3.90
10598;BMP180;5346;48.766;8.674;2024-01-11T11:43:21;94796.00;;;4.10
10598;BMP180;5346;48.766;8.674;2024-01-11T11:45:50;94789.00;;;3.60
10598;BMP180;5346;48.766;8.674;2024-01-11T11:51:13;94798.00;;;4.70
10598;BMP180;5346;48.766;8.674;2024-01-11T11:53:51;94784.00;;;5.20
10598;BMP180;5346;48.766;8.674;2024-01-11T11:56:26;94777.00;;;3.90
10598;BMP180;5346;48.766;8.674;2024-01-11T11:59:01;94778.00;;;3.30
10598;BMP180;5346;48.766;8.674;2024-01-11T12:01:37;94764.00;;;5.20
10598;BMP180;5346;48.766;8.674;2024-01-11T12:04:14;94772.00;;;5.40
10598;BMP180;5346;48.766;8.674;2024-01-11T12:06:42;94768.00;;;5.30
10598;BMP180;5346;48.766;8.674;2024-01-11T12:09:19;94760.00;;;5.10
10598;BMP180;5346;48.766;8.674;2024-01-11T12:11:51;94749.00;;;5.40
10598;BMP180;5346;48.766;8.674;2024-01-11T12:14:42;94757.00;;;4.40
10598;BMP180;5346;48.766;8.674;2024-01-11T12:17:19;94757.00;;;5.70
10598;BMP180;5346;48.766;8.674;2024-01-11T12:19:54;94747.00;;;6.40
10598;BMP180;5346;48.766;8.674;2024-01-11T12:22:28;94745.00;;;7.00
10598;BMP180;5346;48.766;8.674;2024-01-11T12:24:56;94744.00;;;5.90
10598;BMP180;5346;48.766;8.674;2024-01-11T12:27:37;94733.00;;;6.20
10598;BMP180;5346;48.766;8.674;2024-01-11T12:30:12;94741.00;;;5.80
10598;BMP180;5346;48.766;8.674;2024-01-11T12:32:42;94745.00;;;5.90
10598;BMP180;5346;48.766;8.674;2024-01-11T12:35:11;94732.00;;;6.20
10598;BMP180;5346;48.766;8.674;2024-01-11T12:37:58;94733.00;;;6.40
10598;BMP180;5346;48.766;8.674;2024-01-11T12:40:29;94735.00;;;6.80
10598;BMP180;5346;48.766;8.674;2024-01-11T12:43:10;94733.00;;;5.80
10598;BMP180;5346;48.766;8.674;2024-01-11T12:45:39;94736.00;;;5.50
10598;BMP180;5346;48.766;8.674;2024-01-11T12:48:14;94736.00;;;6.60
10598;BMP180;5346;48.766;8.674;2024-01-11T12:50:44;94734.00;;;6.10
10598;BMP180;5346;48.766;8.674;2024-01-11T12:53:32;94745.00;;;4.60
10598;BMP180;5346;48.766;8.674;2024-01-11T12:56:05;94745.00;;;5.60
10598;BMP180;5346;48.766;8.674;2024-01-11T12:58:43;94739.00;;;5.90
10598;BMP180;5346;48.766;8.674;2024-01-11T13:01:17;94743.00;;;6.40
10598;BMP180;5346;48.766;8.674;2024-01-11T13:03:51;94741.00;;;6.70
10598;BMP180;5346;48.766;8.674;2024-01-11T13:06:19;94741.00;;;6.00
10598;BMP180;5346;48.766;8.674;2024-01-11T13:08:55;94740.00;;;6.30
10598;BMP180;5346;48.766;8.674;2024-01-11T13:11:27;94733.00;;;6.80
10598;BMP180;5346;48.766;8.674;2024-01-11T13:14:01;94728.00;;;7.20
10598;BMP180;5346;48.766;8.674;2024-01-11T13:16:40;94720.00;;;6.60
10598;BMP180;5346;48.766;8.674;2024-01-11T13:19:24;94731.00;;;5.30
10598;BMP180;5346;48.766;8.674;2024-01-11T13:22:04;94735.00;;;7.80
10598;BMP180;5346;48.766;8.674;2024-01-11T13:24:38;94730.00;;;6.40
10598;BMP180;5346;48.766;8.674;2024-01-11T13:27:07;94742.00;;;4.40
10598;BMP180;5346;48.766;8.674;2024-01-11T13:29:48;94732.00;;;4.50
10598;BMP180;5346;48.766;8.674;2024-01-11T13:32:22;94734.00;;;5.60
10598;BMP180;5346;48.766;8.674;2024-01-11T13:34:50;94742.00;;;5.30
10598;BMP180;5346;48.766;8.674;2024-01-11T13:37:26;94741.00;;;6.90
10598;BMP180;5346;48.766;8.674;2024-01-11T13:40:00;94749.00;;;7.40
10598;BMP180;5346;48.766;8.674;2024-01-11T13:42:36;94760.00;;;7.10
10598;BMP180;5346;48.766;8.674;2024-01-11T13:45:04;94751.00;;;8.20
10598;BMP180;5346;48.766;8.674;2024-01-11T13:47:40;94762.00;;;8.00
10598;BMP180;5346;48.766;8.674;2024-01-11T13:50:08;94770.00;;;7.10
10598;BMP180;5346;48.766;8.674;2024-01-11T13:52:44;94772.00;;;7.40
10598;BMP180;5346;48.766;8.674;2024-01-11T13:55:16;94773.00;;;7.00
10598;BMP180;5346;48.766;8.674;2024-01-11T13:57:52;94777.00;;;6.90
10598;BMP180;5346;48.766;8.674;2024-01-11T14:00:20;94776.00;;;4.10
10598;BMP180;5346;48.766;8.674;2024-01-11T14:02:55;94788.00;;;4.50
10598;BMP180;5346;48.766;8.674;2024-01-11T14:05:22;94776.00;;;4.70
10598;BMP180;5346;48.766;8.674;2024-01-11T14:07:57;94780.00;;;4.10
10598;BMP180;5346;48.766;8.674;2024-01-11T14:10:29;94781.00;;;5.20
10598;BMP180;5346;48.766;8.674;2024-01-11T14:12:56;94776.00;;;7.20
10598;BMP180;5346;48.766;8.674;2024-01-11T14:15:32;94773.00;;;7.20
10598;BMP180;5346;48.766;8.674;2024-01-11T14:18:00;94787.00;;;6.40
10598;BMP180;5346;48.766;8.674;2024-01-11T14:20:35;94794.00;;;5.30
10598;BMP180;5346;48.766;8.674;2024-01-11T14:23:10;94804.00;;;5.00
10598;BMP180;5346;48.766;8.674;2024-01-11T14:25:44;94800.00;;;4.70
10598;BMP180;5346;48.766;8.674;2024-01-11T14:28:26;94809.00;;;4.90
10598;BMP180;5346;48.766;8.674;2024-01-11T14:30:55;94808.00;;;5.30
10598;BMP180;5346;48.766;8.674;2024-01-11T14:33:30;94819.00;;;5.50
10598;BMP180;5346;48.766;8.674;2024-01-11T14:35:58;94812.00;;;4.60
10598;BMP180;5346;48.766;8.674;2024-01-11T14:38:32;94822.00;;;4.60
10598;BMP180;5346;48.766;8.674;2024-01-11T14:40:59;94834.00;;;5.20
10598;BMP180;5346;48.766;8.674;2024-01-11T14:43:34;94834.00;;;4.40
10598;BMP180;5346;48.766;8.674;2024-01-11T14:46:08;94837.00;;;4.80
10598;BMP180;5346;48.766;8.674;2024-01-11T14:48:38;94835.00;;;3.80
10598;BMP180;5346;48.766;8.674;2024-01-11T14:51:12;94826.00;;;2.60
10598;BMP180;5346;48.766;8.674;2024-01-11T14:53:46;94825.00;;;1.10
10598;BMP180;5346;48.766;8.674;2024-01-11T14:56:20;94828.00;;;0.20
10598;BMP180;5346;48.766;8.674;2024-01-11T14:58:55;94828.00;;;-0.40
10598;BMP180;5346;48.766;8.674;2024-01-11T15:01:30;94840.00;;;-0.90
10598;BMP180;5346;48.766;8.674;2024-01-11T15:03:59;94836.00;;;-1.30